Time;durP1;ratioP1;P1;durP2;ratioP2;P2;SDS_P1;SDS_P2;PMS_P1;PMS_P2;Temp;Humidity;BMP_temperature;BMP_pressure;BME280_temperature;BME280_humidity;BME280_pressure;Samples;Min_cycle;Max_cycle;Signal;HPM_P1;HPM_P2
2022/10/21 00:00:23;;;;;;;;;;;13.50;99.90;;;;;;5094184;28;19944;-69
2022/10/21 00:02:48;;;;;;;;;;;13.40;99.90;;;;;;5094169;28;20387;-69
2022/10/21 00:05:14;;;;;;;;;;;13.40;99.90;;;;;;5094118;28;20280;-69
2022/10/21 00:07:40;;;;;;;;;;;13.40;99.90;;;;;;5093829;28;20397;-69
2022/10/21 00:10:05;;;;;;;;;;;13.40;99.90;;;;;;5094037;28;20006;-69
2022/10/21 00:12:31;;;;;;;;;;;13.40;99.90;;;;;;5093941;28;20361;-69
2022/10/21 00:14:56;;;;;;;;;;;13.40;99.90;;;;;;5094233;28;19994;-69
2022/10/21 00:17:22;;;;;;;;;;;13.40;99.90;;;;;;5093930;28;20350;-69
2022/10/21 00:19:47;;;;;;;;;;;13.40;99.90;;;;;;5093901;28;19912;-69
2022/10/21 00:22:13;;;;;;;;;;;13.40;99.90;;;;;;5093877;28;20003;-69
2022/10/21 00:24:38;;;;;;;;;;;13.40;99.90;;;;;;5093841;28;20366;-69
2022/10/21 00:27:04;;;;;;;;;;;13.50;99.90;;;;;;5092560;28;19915;-69
2022/10/21 00:29:31;;;;;;;;;;;13.60;99.90;;;;;;5093820;28;20385;-68
2022/10/21 00:31:56;;;;;;;;;;;13.60;99.90;;;;;;5093550;28;19919;-69
2022/10/21 00:34:22;;;;;;;;;;;13.60;99.90;;;;;;5093749;28;20380;-69
2022/10/21 00:36:47;;;;;;;;;;;13.70;99.90;;;;;;5093729;28;19908;-68
2022/10/21 00:39:13;;;;;;;;;;;13.60;99.90;;;;;;5093706;28;19908;-68
2022/10/21 00:41:39;;;;;;;;;;;13.50;99.90;;;;;;5093667;28;19931;-68
2022/10/21 00:44:06;;;;;;;;;;;13.50;99.90;;;;;;5093648;28;19957;-69
2022/10/21 00:46:51;;;;;;;;;;;13.60;99.90;;;;;;5093900;28;19908;-68
2022/10/21 00:49:20;;;;;;;;;;;13.70;99.90;;;;;;5093635;28;19909;-68
2022/10/21 00:51:47;;;;;;;;;;;13.80;99.90;;;;;;5093495;28;19916;-69
2022/10/21 00:54:13;;;;;;;;;;;14.10;99.90;;;;;;5093852;28;19915;-70
2022/10/21 00:56:39;;;;;;;;;;;14.20;99.90;;;;;;5093552;28;19923;-69
2022/10/21 00:59:05;;;;;;;;;;;14.30;99.90;;;;;;5093559;28;20281;-69
2022/10/21 01:01:30;;;;;;;;;;;14.40;99.90;;;;;;5092547;28;19970;-70
2022/10/21 01:03:56;;;;;;;;;;;14.50;99.90;;;;;;5093498;28;19912;-69
2022/10/21 01:06:22;;;;;;;;;;;14.60;99.90;;;;;;5092248;28;19908;-70
2022/10/21 01:08:48;;;;;;;;;;;14.60;99.90;;;;;;5093424;28;20385;-70
2022/10/21 01:11:16;;;;;;;;;;;14.70;99.90;;;;;;5093470;28;19908;-69
2022/10/21 01:14:02;;;;;;;;;;;14.70;99.90;;;;;;5093390;28;20008;-70
2022/10/21 01:16:32;;;;;;;;;;;14.80;99.90;;;;;;5093293;28;19908;-70
2022/10/21 01:19:01;;;;;;;;;;;15.00;99.90;;;;;;5093468;28;19954;-70
2022/10/21 01:21:31;;;;;;;;;;;15.00;99.90;;;;;;5097172;28;20280;-70
2022/10/21 01:24:16;;;;;;;;;;;15.10;99.90;;;;;;5097176;28;19962;-69
2022/10/21 01:26:54;;;;;;;;;;;15.20;99.90;;;;;;5097161;28;19908;-69
2022/10/21 01:29:39;;;;;;;;;;;15.30;99.90;;;;;;5097007;28;19908;-69
2022/10/21 01:32:12;;;;;;;;;;;15.40;99.90;;;;;;5095321;28;20376;-69
2022/10/21 01:34:42;;;;;;;;;;;15.40;99.90;;;;;;5096870;28;20416;-69
2022/10/21 01:37:12;;;;;;;;;;;15.40;99.90;;;;;;5096858;28;19908;-69
2022/10/21 01:39:40;;;;;;;;;;;15.40;99.90;;;;;;5096805;28;19908;-69
2022/10/21 01:42:14;;;;;;;;;;;15.40;99.90;;;;;;5096768;28;19946;-70
2022/10/21 01:44:49;;;;;;;;;;;15.40;99.90;;;;;;5096698;28;19958;-70
2022/10/21 01:47:18;;;;;;;;;;;15.50;99.90;;;;;;5096773;28;19914;-70
2022/10/21 01:49:46;;;;;;;;;;;15.40;99.90;;;;;;5096610;28;19915;-69
2022/10/21 01:52:12;;;;;;;;;;;15.40;99.90;;;;;;5096495;28;19912;-69
2022/10/21 01:54:39;;;;;;;;;;;15.50;99.90;;;;;;5096550;28;19927;-69
2022/10/21 01:57:06;;;;;;;;;;;15.40;99.90;;;;;;5096526;28;19908;-69
2022/10/21 01:59:32;;;;;;;;;;;15.40;99.90;;;;;;5095191;28;19915;-69
2022/10/21 02:01:59;;;;;;;;;;;15.30;99.90;;;;;;5096386;28;19915;-69
2022/10/21 02:04:26;;;;;;;;;;;15.30;99.90;;;;;;5096436;28;19919;-69
2022/10/21 02:06:51;;;;;;;;;;;15.20;99.90;;;;;;5096553;28;19908;-70
2022/10/21 02:09:17;;;;;;;;;;;15.20;99.90;;;;;;5096262;28;19969;-69
2022/10/21 02:11:43;;;;;;;;;;;15.10;99.90;;;;;;5096148;28;19912;-70
2022/10/21 02:14:12;;;;;;;;;;;15.10;99.90;;;;;;5096402;28;20268;-70
2022/10/21 02:16:38;;;;;;;;;;;15.00;99.90;;;;;;5096138;28;20100;-70
2022/10/21 02:19:05;;;;;;;;;;;14.90;99.90;;;;;;5096341;28;19908;-69
2022/10/21 02:21:33;;;;;;;;;;;14.90;99.90;;;;;;5095953;28;19916;-69
2022/10/21 02:24:19;;;;;;;;;;;14.90;99.90;;;;;;5095933;28;19912;-69
2022/10/21 02:26:44;;;;;;;;;;;14.90;99.90;;;;;;5095928;28;19908;-69
2022/10/21 02:29:10;;;;;;;;;;;14.80;99.90;;;;;;5095748;28;19915;-70
2022/10/21 02:31:43;;;;;;;;;;;14.80;99.90;;;;;;5095570;28;19973;-69
2022/10/21 02:34:15;;;;;;;;;;;14.70;99.90;;;;;;5096058;28;20097;-69
2022/10/21 02:37:00;;;;;;;;;;;14.70;99.90;;;;;;5095751;28;19931;-69
2022/10/21 02:39:31;;;;;;;;;;;14.60;99.90;;;;;;5095609;28;19980;-69
2022/10/21 02:41:58;;;;;;;;;;;14.60;99.90;;;;;;5095609;28;20361;-69
2022/10/21 02:44:23;;;;;;;;;;;14.50;99.90;;;;;;5095589;28;19908;-69
2022/10/21 02:46:49;;;;;;;;;;;14.50;99.90;;;;;;5095513;28;19999;-69
2022/10/21 02:49:14;;;;;;;;;;;14.50;99.90;;;;;;5095530;28;19908;-69
2022/10/21 02:51:40;;;;;;;;;;;14.50;99.90;;;;;;5095365;28;19916;-69
2022/10/21 02:54:05;;;;;;;;;;;14.50;99.90;;;;;;5095642;28;19915;-69
2022/10/21 02:56:31;;;;;;;;;;;14.40;99.90;;;;;;5094122;28;19908;-69
2022/10/21 02:58:56;;;;;;;;;;;14.30;99.90;;;;;;5095307;28;20281;-69
2022/10/21 03:01:22;;;;;;;;;;;14.30;99.90;;;;;;5095473;28;19912;-69
2022/10/21 03:03:47;;;;;;;;;;;14.20;99.90;;;;;;5095213;28;19908;-69
2022/10/21 03:06:13;;;;;;;;;;;14.20;99.90;;;;;;5095147;28;19912;-69
2022/10/21 03:08:38;;;;;;;;;;;14.20;99.90;;;;;;5095085;28;19912;-69
2022/10/21 03:11:04;;;;;;;;;;;14.20;99.90;;;;;;5095305;28;19908;-69
2022/10/21 03:13:29;;;;;;;;;;;14.20;99.90;;;;;;5095254;28;20361;-68
2022/10/21 03:15:55;;;;;;;;;;;14.20;99.90;;;;;;5094949;28;19912;-68
2022/10/21 03:18:20;;;;;;;;;;;14.10;99.90;;;;;;5094897;28;19908;-69
2022/10/21 03:20:47;;;;;;;;;;;14.10;99.90;;;;;;5094825;28;19920;-68
2022/10/21 03:23:13;;;;;;;;;;;14.10;99.90;;;;;;5094735;28;20366;-68
2022/10/21 03:25:38;;;;;;;;;;;14.10;99.90;;;;;;5094765;28;19919;-68
2022/10/21 03:28:04;;;;;;;;;;;14.00;99.90;;;;;;5093587;28;20382;-68
2022/10/21 03:30:29;;;;;;;;;;;14.00;99.90;;;;;;5094606;28;19908;-68
2022/10/21 03:32:55;;;;;;;;;;;14.00;99.90;;;;;;5094366;28;19920;-69
2022/10/21 03:35:20;;;;;;;;;;;13.90;99.90;;;;;;5094613;28;19954;-68
2022/10/21 03:37:45;;;;;;;;;;;13.90;99.90;;;;;;5094820;28;19915;-68
2022/10/21 03:40:11;;;;;;;;;;;13.80;99.90;;;;;;5094538;28;19909;-68
2022/10/21 03:42:36;;;;;;;;;;;13.90;99.90;;;;;;5094237;28;19908;-68
2022/10/21 03:45:02;;;;;;;;;;;13.80;99.90;;;;;;5093294;28;19915;-68
2022/10/21 03:47:27;;;;;;;;;;;13.80;99.90;;;;;;5094689;28;19912;-68
2022/10/21 03:49:53;;;;;;;;;;;13.70;99.90;;;;;;5093196;28;19965;-68
2022/10/21 03:52:18;;;;;;;;;;;13.70;99.90;;;;;;5094328;28;19923;-68
2022/10/21 03:54:44;;;;;;;;;;;13.70;99.90;;;;;;5093147;28;20370;-68
2022/10/21 03:57:09;;;;;;;;;;;13.70;99.90;;;;;;5094193;28;20377;-68
2022/10/21 03:59:34;;;;;;;;;;;13.60;99.90;;;;;;5094224;28;19947;-68
2022/10/21 04:02:00;;;;;;;;;;;13.70;99.90;;;;;;5094162;28;19915;-68
2022/10/21 04:04:25;;;;;;;;;;;13.70;99.90;;;;;;5094104;28;19915;-68
2022/10/21 04:06:51;;;;;;;;;;;13.60;99.90;;;;;;5094342;28;20018;-68
2022/10/21 04:09:16;;;;;;;;;;;13.60;99.90;;;;;;5094098;28;19908;-69
2022/10/21 04:11:42;;;;;;;;;;;13.40;99.90;;;;;;5093939;28;19961;-68
2022/10/21 04:14:07;;;;;;;;;;;13.40;99.90;;;;;;5093897;28;19933;-69
2022/10/21 04:16:33;;;;;;;;;;;13.30;99.90;;;;;;5093914;28;19908;-68
2022/10/21 04:18:58;;;;;;;;;;;13.20;99.90;;;;;;5092743;28;19912;-68
2022/10/21 04:21:24;;;;;;;;;;;13.20;99.90;;;;;;5093890;28;20014;-68
2022/10/21 04:23:49;;;;;;;;;;;13.20;99.90;;;;;;5093912;28;19998;-68
2022/10/21 04:26:15;;;;;;;;;;;13.10;99.90;;;;;;5093832;28;19912;-68
2022/10/21 04:28:40;;;;;;;;;;;13.20;99.90;;;;;;5093787;28;19908;-68
2022/10/21 04:31:06;;;;;;;;;;;13.10;99.90;;;;;;5093821;28;19909;-68
2022/10/21 04:33:31;;;;;;;;;;;13.10;99.90;;;;;;5093502;28;20442;-68
2022/10/21 04:35:57;;;;;;;;;;;13.10;99.90;;;;;;5093716;28;19908;-68
2022/10/21 04:38:23;;;;;;;;;;;13.00;99.90;;;;;;5093953;28;19908;-69
2022/10/21 04:40:54;;;;;;;;;;;13.00;99.90;;;;;;5093976;28;19912;-68
2022/10/21 04:43:19;;;;;;;;;;;13.00;99.90;;;;;;5093618;28;20007;-68
2022/10/21 04:45:45;;;;;;;;;;;13.00;99.90;;;;;;5093937;28;19948;-69
2022/10/21 04:48:12;;;;;;;;;;;13.00;99.90;;;;;;5093580;28;19961;-68
2022/10/21 04:50:37;;;;;;;;;;;13.00;99.90;;;;;;5093839;28;19914;-68
2022/10/21 04:53:03;;;;;;;;;;;13.00;99.90;;;;;;5093501;28;19994;-68
2022/10/21 04:55:28;;;;;;;;;;;13.00;99.90;;;;;;5097904;28;19912;-68
2022/10/21 04:57:54;;;;;;;;;;;13.00;99.90;;;;;;5097635;28;19915;-69
2022/10/21 05:00:19;;;;;;;;;;;12.90;99.90;;;;;;5097562;28;19965;-69
2022/10/21 05:02:45;;;;;;;;;;;12.90;99.90;;;;;;5097574;28;19951;-68
2022/10/21 05:05:10;;;;;;;;;;;12.90;99.90;;;;;;5097474;28;19916;-68
2022/10/21 05:07:35;;;;;;;;;;;12.90;99.90;;;;;;5097644;28;19916;-68
2022/10/21 05:10:01;;;;;;;;;;;12.80;99.90;;;;;;5097338;28;19953;-69
2022/10/21 05:12:26;;;;;;;;;;;12.80;99.90;;;;;;5096160;28;19912;-68
2022/10/21 05:14:52;;;;;;;;;;;12.70;99.90;;;;;;5096175;28;19909;-68
2022/10/21 05:17:17;;;;;;;;;;;12.70;99.90;;;;;;5097285;28;20361;-68
2022/10/21 05:19:44;;;;;;;;;;;12.60;99.90;;;;;;5097253;28;20370;-68
2022/10/21 05:22:10;;;;;;;;;;;12.50;99.90;;;;;;5097108;28;19909;-68
2022/10/21 05:24:35;;;;;;;;;;;12.60;99.90;;;;;;5097406;28;20388;-68
2022/10/21 05:27:01;;;;;;;;;;;12.50;99.90;;;;;;5097130;28;19908;-67
2022/10/21 05:29:26;;;;;;;;;;;12.40;99.90;;;;;;5097044;28;19947;-68
2022/10/21 05:31:52;;;;;;;;;;;12.40;99.90;;;;;;5096881;28;19920;-69
2022/10/21 05:34:17;;;;;;;;;;;12.30;99.90;;;;;;5096878;28;20381;-68
2022/10/21 05:36:43;;;;;;;;;;;12.30;99.90;;;;;;5096874;28;19915;-68
2022/10/21 05:39:10;;;;;;;;;;;12.20;99.90;;;;;;5096881;28;19919;-69
2022/10/21 05:41:36;;;;;;;;;;;12.20;99.90;;;;;;5096828;28;19907;-68
2022/10/21 05:44:02;;;;;;;;;;;12.20;99.90;;;;;;5096715;28;20475;-68
2022/10/21 05:46:27;;;;;;;;;;;12.20;99.90;;;;;;5095412;28;19908;-68
2022/10/21 05:48:52;;;;;;;;;;;12.30;99.90;;;;;;5096695;28;19908;-69
2022/10/21 05:51:24;;;;;;;;;;;12.30;99.90;;;;;;5093932;28;19916;-68
2022/10/21 05:53:49;;;;;;;;;;;12.40;99.90;;;;;;5095436;28;19922;-67
2022/10/21 05:56:15;;;;;;;;;;;12.40;99.90;;;;;;5096432;28;20011;-68
2022/10/21 05:58:40;;;;;;;;;;;12.40;99.90;;;;;;5096287;28;19934;-68
2022/10/21 06:01:06;;;;;;;;;;;12.40;99.90;;;;;;5095165;28;20341;-68
2022/10/21 06:03:31;;;;;;;;;;;12.20;99.90;;;;;;5095969;28;19927;-68
2022/10/21 06:05:58;;;;;;;;;;;12.20;99.90;;;;;;5095615;28;19908;-68
2022/10/21 06:08:24;;;;;;;;;;;12.10;99.90;;;;;;5096198;28;19909;-68
2022/10/21 06:10:49;;;;;;;;;;;12.00;99.90;;;;;;5094631;28;19919;-67
2022/10/21 06:13:15;;;;;;;;;;;12.00;99.90;;;;;;5095632;28;20396;-68
2022/10/21 06:15:41;;;;;;;;;;;11.90;99.90;;;;;;5095010;28;19908;-68
2022/10/21 06:18:06;;;;;;;;;;;11.90;99.90;;;;;;5094438;28;19908;-68
2022/10/21 06:20:32;;;;;;;;;;;12.00;99.90;;;;;;5077489;28;19916;-68
2022/10/21 06:22:58;;;;;;;;;;;12.00;99.90;;;;;;5077853;28;20041;-68
2022/10/21 06:25:23;;;;;;;;;;;12.10;99.90;;;;;;5095786;28;20362;-68
2022/10/21 06:27:49;;;;;;;;;;;12.30;99.90;;;;;;5094319;28;19912;-69
2022/10/21 06:30:14;;;;;;;;;;;12.30;99.90;;;;;;5094015;28;19939;-68
2022/10/21 06:32:40;;;;;;;;;;;12.30;99.90;;;;;;5095214;28;19926;-69
2022/10/21 06:35:05;;;;;;;;;;;12.30;99.90;;;;;;5095590;28;19951;-69
2022/10/21 06:37:31;;;;;;;;;;;12.40;99.90;;;;;;5095501;28;19957;-68
2022/10/21 06:39:56;;;;;;;;;;;12.40;99.90;;;;;;5095369;28;19995;-69
2022/10/21 06:42:21;;;;;;;;;;;12.40;99.90;;;;;;5095101;28;20297;-68
2022/10/21 06:44:47;;;;;;;;;;;12.40;99.90;;;;;;5095442;28;19916;-68
2022/10/21 06:47:12;;;;;;;;;;;12.50;99.90;;;;;;5095348;28;20410;-68
2022/10/21 06:49:38;;;;;;;;;;;12.50;99.90;;;;;;5094990;28;20435;-68
2022/10/21 06:52:03;;;;;;;;;;;12.60;99.90;;;;;;5095024;28;19912;-69
2022/10/21 06:54:29;;;;;;;;;;;12.60;99.90;;;;;;5094855;28;19912;-68
2022/10/21 06:56:54;;;;;;;;;;;12.70;99.90;;;;;;5095042;28;19947;-69
2022/10/21 06:59:20;;;;;;;;;;;12.70;99.90;;;;;;5095130;28;19908;-69
2022/10/21 07:01:45;;;;;;;;;;;12.70;99.90;;;;;;5095117;28;19994;-68
2022/10/21 07:04:11;;;;;;;;;;;12.80;99.90;;;;;;5094929;28;19908;-69
2022/10/21 07:06:36;;;;;;;;;;;12.80;99.90;;;;;;5094641;28;20388;-69
2022/10/21 07:09:03;;;;;;;;;;;12.80;99.90;;;;;;5094936;28;19915;-69
2022/10/21 07:11:29;;;;;;;;;;;12.90;99.90;;;;;;5093498;28;19913;-69
2022/10/21 07:13:54;;;;;;;;;;;12.90;99.90;;;;;;5093248;28;19923;-69
2022/10/21 07:16:23;;;;;;;;;;;13.00;99.90;;;;;;5092558;28;19912;-69
2022/10/21 07:18:48;;;;;;;;;;;13.10;99.90;;;;;;5094387;28;20369;-69
2022/10/21 07:21:16;;;;;;;;;;;13.20;99.90;;;;;;5093657;28;19954;-69
2022/10/21 07:23:42;;;;;;;;;;;13.30;99.90;;;;;;5093201;28;19955;-69
2022/10/21 07:26:08;;;;;;;;;;;13.30;99.90;;;;;;5094488;28;20361;-69
2022/10/21 07:28:34;;;;;;;;;;;13.40;99.90;;;;;;5094569;28;19908;-69
2022/10/21 07:30:59;;;;;;;;;;;13.50;99.90;;;;;;5094143;28;19912;-69
2022/10/21 07:33:25;;;;;;;;;;;13.70;99.90;;;;;;5094042;28;19931;-69
2022/10/21 07:35:51;;;;;;;;;;;13.90;99.90;;;;;;5092923;28;19908;-69
2022/10/21 07:38:17;;;;;;;;;;;13.90;99.90;;;;;;5094280;28;20365;-69
2022/10/21 07:40:43;;;;;;;;;;;14.00;99.90;;;;;;5094284;28;19915;-69
2022/10/21 07:43:09;;;;;;;;;;;14.00;99.90;;;;;;5092788;28;19915;-69
2022/10/21 07:45:38;;;;;;;;;;;14.10;99.90;;;;;;5093983;28;19958;-70
2022/10/21 07:48:04;;;;;;;;;;;14.20;99.90;;;;;;5094169;28;19954;-69
2022/10/21 07:50:29;;;;;;;;;;;14.30;99.90;;;;;;5093966;28;19908;-69
2022/10/21 07:52:55;;;;;;;;;;;14.40;99.90;;;;;;5093762;28;19912;-69
2022/10/21 07:55:20;;;;;;;;;;;14.40;99.90;;;;;;5093977;28;19908;-68
2022/10/21 07:57:45;;;;;;;;;;;14.50;99.90;;;;;;5092717;28;19908;-69
2022/10/21 08:00:11;;;;;;;;;;;14.50;99.90;;;;;;5094031;28;20003;-69
2022/10/21 08:02:37;;;;;;;;;;;14.50;99.90;;;;;;5093914;28;19908;-69
2022/10/21 08:05:03;;;;;;;;;;;14.60;99.90;;;;;;5093894;28;19909;-69
2022/10/21 08:07:30;;;;;;;;;;;14.60;99.90;;;;;;5093978;28;19973;-69
2022/10/21 08:09:56;;;;;;;;;;;14.60;99.90;;;;;;5093666;28;19908;-69
2022/10/21 08:12:22;;;;;;;;;;;14.60;99.90;;;;;;5093742;28;20380;-69
2022/10/21 08:14:47;;;;;;;;;;;14.70;99.90;;;;;;5092333;28;19912;-69
2022/10/21 08:17:13;;;;;;;;;;;14.80;99.90;;;;;;5093854;28;19915;-70
2022/10/21 08:19:38;;;;;;;;;;;14.70;99.90;;;;;;5093735;28;20338;-70
2022/10/21 08:22:04;;;;;;;;;;;14.80;99.90;;;;;;5093329;28;19908;-70
2022/10/21 08:24:30;;;;;;;;;;;14.80;99.90;;;;;;5093763;28;19908;-70
2022/10/21 08:26:55;;;;;;;;;;;14.80;99.90;;;;;;5093573;28;19957;-70
2022/10/21 08:29:21;;;;;;;;;;;14.80;99.90;;;;;;5093478;28;19908;-70
2022/10/21 08:31:46;;;;;;;;;;;14.90;99.90;;;;;;5093042;28;19931;-70
2022/10/21 08:34:12;;;;;;;;;;;14.90;99.90;;;;;;5091916;28;19908;-69
2022/10/21 08:36:37;;;;;;;;;;;14.90;99.90;;;;;;5093385;28;19908;-69
2022/10/21 08:39:03;;;;;;;;;;;14.80;99.90;;;;;;5093682;28;19908;-69
2022/10/21 08:41:32;;;;;;;;;;;14.90;99.90;;;;;;5093365;28;19912;-69
2022/10/21 08:44:02;;;;;;;;;;;14.90;99.90;;;;;;5093531;28;19912;-70
2022/10/21 08:46:30;;;;;;;;;;;14.90;99.90;;;;;;5092907;28;19908;-70
2022/10/21 08:48:59;;;;;;;;;;;14.80;99.90;;;;;;5093305;28;19908;-70
2022/10/21 08:51:27;;;;;;;;;;;14.80;99.90;;;;;;5093151;28;19915;-69
2022/10/21 08:53:54;;;;;;;;;;;14.80;99.90;;;;;;5093454;28;19912;-69
2022/10/21 08:56:19;;;;;;;;;;;14.80;99.90;;;;;;5093234;28;20391;-68
2022/10/21 08:58:46;;;;;;;;;;;14.80;99.90;;;;;;5093010;28;19908;-68
2022/10/21 09:01:15;;;;;;;;;;;14.90;99.90;;;;;;5093483;28;20377;-68
2022/10/21 09:04:01;;;;;;;;;;;14.80;99.90;;;;;;5093041;28;19931;-68
2022/10/21 09:06:36;;;;;;;;;;;14.90;99.90;;;;;;5093098;28;19908;-68
2022/10/21 09:09:16;;;;;;;;;;;14.90;99.90;;;;;;5091918;28;19931;-69
2022/10/21 09:12:01;;;;;;;;;;;14.90;99.90;;;;;;5092679;28;20025;-68
2022/10/21 09:14:47;;;;;;;;;;;14.90;99.90;;;;;;5093065;28;19962;-69
2022/10/21 09:17:32;;;;;;;;;;;15.00;99.90;;;;;;5093017;28;19908;-67
2022/10/21 09:20:17;;;;;;;;;;;15.00;99.90;;;;;;5093120;28;19962;-68
2022/10/21 09:22:58;;;;;;;;;;;14.90;99.90;;;;;;5092772;28;19912;-69
2022/10/21 09:25:27;;;;;;;;;;;14.90;99.90;;;;;;5093070;28;19961;-67
2022/10/21 09:27:53;;;;;;;;;;;14.90;99.90;;;;;;5093148;28;19916;-68
2022/10/21 09:30:21;;;;;;;;;;;14.90;99.90;;;;;;5093040;28;20002;-68
2022/10/21 09:32:48;;;;;;;;;;;14.80;99.90;;;;;;5091458;28;20328;-68
2022/10/21 09:35:19;;;;;;;;;;;14.90;99.90;;;;;;5092660;28;19982;-68
2022/10/21 09:37:47;;;;;;;;;;;14.80;99.90;;;;;;5092970;28;20404;-69
2022/10/21 09:40:17;;;;;;;;;;;14.90;99.90;;;;;;5094613;28;19969;-68
2022/10/21 09:42:43;;;;;;;;;;;14.80;99.90;;;;;;5096886;28;20400;-68
2022/10/21 09:45:16;;;;;;;;;;;14.80;99.90;;;;;;5096697;28;19962;-68
2022/10/21 09:47:41;;;;;;;;;;;14.70;99.90;;;;;;5096116;28;19914;-68
2022/10/21 09:50:13;;;;;;;;;;;14.80;99.90;;;;;;5096359;28;19912;-68
2022/10/21 09:52:39;;;;;;;;;;;14.80;99.90;;;;;;5096054;28;19916;-68
2022/10/21 09:55:05;;;;;;;;;;;14.80;99.90;;;;;;5096205;28;19998;-68
2022/10/21 09:57:50;;;;;;;;;;;14.80;99.90;;;;;;5096162;28;20199;-68
2022/10/21 10:00:16;;;;;;;;;;;14.90;99.90;;;;;;5096003;28;20010;-68
2022/10/21 10:02:43;;;;;;;;;;;15.00;99.90;;;;;;5096153;28;19946;-68
2022/10/21 10:05:28;;;;;;;;;;;15.00;99.90;;;;;;5096362;28;19908;-68
2022/10/21 10:07:53;;;;;;;;;;;15.10;99.90;;;;;;5096080;28;20361;-68
2022/10/21 10:10:34;;;;;;;;;;;15.10;99.90;;;;;;5096418;28;20056;-68
2022/10/21 10:13:00;;;;;;;;;;;15.10;99.90;;;;;;5095473;28;19919;-69
2022/10/21 10:15:32;;;;;;;;;;;15.00;99.90;;;;;;5096009;28;20423;-67
2022/10/21 10:17:58;;;;;;;;;;;15.00;99.90;;;;;;5096198;28;20384;-68
2022/10/21 10:20:24;;;;;;;;;;;15.00;99.90;;;;;;5095841;28;19908;-68
2022/10/21 10:25:47;;;;;;;;;;;15.00;99.90;;;;;;5081464;27;19940;-68
2022/10/21 10:28:18;;;;;;;;;;;14.90;99.90;;;;;;5047388;28;19913;-67
2022/10/21 10:33:23;;;;;;;;;;;15.00;99.90;;;;;;5144540;27;20282;-68
2022/10/21 10:35:51;;;;;;;;;;;15.20;99.90;;;;;;5089320;28;19912;-67
2022/10/21 10:38:31;;;;;;;;;;;15.20;99.90;;;;;;5102775;28;19913;-67
2022/10/21 10:41:06;;;;;;;;;;;15.20;99.90;;;;;;5070943;28;19930;-67
2022/10/21 10:43:33;;;;;;;;;;;15.30;99.90;;;;;;5082787;28;19913;-67
2022/10/21 10:46:00;;;;;;;;;;;15.30;99.90;;;;;;5088988;28;20060;-67
2022/10/21 10:48:30;;;;;;;;;;;15.30;99.90;;;;;;5095083;28;19957;-68
2022/10/21 10:50:56;;;;;;;;;;;15.30;99.90;;;;;;5083428;28;19986;-68
2022/10/21 10:53:37;;;;;;;;;;;15.30;99.90;;;;;;5075673;28;19916;-68
2022/10/21 10:56:23;;;;;;;;;;;15.40;99.90;;;;;;5081049;28;19916;-67
2022/10/21 10:58:52;;;;;;;;;;;15.40;99.90;;;;;;5088972;28;19912;-67
2022/10/21 11:01:23;;;;;;;;;;;15.40;99.90;;;;;;5077630;28;19913;-67
2022/10/21 11:03:53;;;;;;;;;;;15.40;99.90;;;;;;5077659;28;20366;-68
2022/10/21 11:06:24;;;;;;;;;;;15.50;99.90;;;;;;5090304;28;19952;-68
2022/10/21 11:08:53;;;;;;;;;;;15.50;99.90;;;;;;5090296;28;19908;-67
2022/10/21 11:11:22;;;;;;;;;;;15.50;99.90;;;;;;5086601;28;19917;-67
2022/10/21 11:13:48;;;;;;;;;;;15.50;99.90;;;;;;5069846;28;19913;-67
2022/10/21 11:19:18;;;;;;;;;;;15.60;99.90;;;;;;5143473;27;814480;-67
2022/10/21 11:21:45;;;;;;;;;;;15.60;99.90;;;;;;5152398;27;19911;-67
2022/10/21 11:24:17;;;;;;;;;;;15.60;99.90;;;;;;5152495;27;19911;-67
2022/10/21 11:27:02;;;;;;;;;;;15.60;99.90;;;;;;5152385;27;19972;-68
2022/10/21 11:29:47;;;;;;;;;;;15.70;99.90;;;;;;5159144;27;20346;-67
2022/10/21 11:32:32;;;;;;;;;;;15.80;99.90;;;;;;5152099;27;20364;-68
2022/10/21 11:35:04;;;;;;;;;;;15.80;99.90;;;;;;5152013;27;20368;-68
2022/10/21 11:37:35;;;;;;;;;;;15.90;99.90;;;;;;5168197;27;20013;-68
2022/10/21 11:40:07;;;;;;;;;;;15.90;99.90;;;;;;5154974;27;19999;-67
2022/10/21 11:42:49;;;;;;;;;;;16.00;99.90;;;;;;5171229;27;19999;-67
2022/10/21 11:45:34;;;;;;;;;;;16.00;99.90;;;;;;5171662;27;19914;-68
2022/10/21 11:48:07;;;;;;;;;;;16.00;99.90;;;;;;5174356;27;19997;-67
2022/10/21 11:50:40;;;;;;;;;;;16.00;99.90;;;;;;5167649;27;19910;-67
2022/10/21 11:53:17;;;;;;;;;;;16.10;99.90;;;;;;5172241;27;19911;-67
2022/10/21 11:55:51;;;;;;;;;;;16.00;99.90;;;;;;5177113;27;19911;-68
2022/10/21 11:58:36;;;;;;;;;;;16.10;99.90;;;;;;5171842;27;19911;-67
2022/10/21 12:01:11;;;;;;;;;;;16.10;99.90;;;;;;5181393;27;19911;-68
2022/10/21 12:03:56;;;;;;;;;;;16.10;99.90;;;;;;5192826;27;19906;-67
2022/10/21 12:06:42;;;;;;;;;;;16.10;99.90;;;;;;5192702;27;19907;-67
2022/10/21 12:09:13;;;;;;;;;;;16.10;99.90;;;;;;5193040;27;20005;-67
2022/10/21 12:11:43;;;;;;;;;;;16.10;99.90;;;;;;5174345;27;20416;-67
2022/10/21 12:14:16;;;;;;;;;;;16.00;99.90;;;;;;5193380;27;20252;-67
2022/10/21 12:16:43;;;;;;;;;;;16.00;99.90;;;;;;5192903;27;19997;-67
2022/10/21 12:19:10;;;;;;;;;;;15.90;99.90;;;;;;5192824;27;20002;-67
2022/10/21 12:21:37;;;;;;;;;;;15.90;99.90;;;;;;5193271;27;19907;-67
2022/10/21 12:24:23;;;;;;;;;;;15.90;99.90;;;;;;5192967;27;19914;-68
2022/10/21 12:26:51;;;;;;;;;;;15.90;99.90;;;;;;5193145;27;19952;-67
2022/10/21 12:29:37;;;;;;;;;;;15.90;99.90;;;;;;5166625;27;20395;-67
2022/10/21 12:32:09;;;;;;;;;;;15.90;99.90;;;;;;5178945;27;20382;-68
2022/10/21 12:34:34;;;;;;;;;;;15.80;99.90;;;;;;5179083;27;19907;-67
2022/10/21 12:37:00;;;;;;;;;;;15.80;99.90;;;;;;5178874;27;20371;-67
2022/10/21 12:42:12;;;;;;;;;;;15.90;99.90;;;;;;5144859;27;19937;-68
2022/10/21 12:44:38;;;;;;;;;;;16.00;99.90;;;;;;5111427;28;20374;-68
2022/10/21 12:47:20;;;;;;;;;;;16.10;99.90;;;;;;5111420;28;20013;-68
2022/10/21 12:49:45;;;;;;;;;;;16.20;99.90;;;;;;5111420;28;19915;-69
2022/10/21 12:52:13;;;;;;;;;;;16.30;99.90;;;;;;5111327;28;20003;-68
2022/10/21 12:54:42;;;;;;;;;;;16.40;99.90;;;;;;5110006;28;19964;-68
2022/10/21 12:57:09;;;;;;;;;;;16.50;99.90;;;;;;5111290;28;20417;-68
2022/10/21 12:59:36;;;;;;;;;;;16.70;99.90;;;;;;5111138;28;19908;-68
2022/10/21 13:04:43;;;;;;;;;;;16.80;99.90;;;;;;5144622;27;19919;-69
2022/10/21 13:07:18;;;;;;;;;;;16.80;99.90;;;;;;5111433;28;19912;-69
2022/10/21 13:09:53;;;;;;;;;;;16.90;99.90;;;;;;5111432;28;19915;-69
2022/10/21 13:15:00;;;;;;;;;;;17.10;99.90;;;;;;5144904;27;19912;-68
2022/10/21 13:17:27;;;;;;;;;;;17.20;99.90;;;;;;5111538;28;19916;-68
2022/10/21 13:19:53;;;;;;;;;;;17.30;99.90;;;;;;5111426;28;20002;-68
2022/10/21 13:22:21;;;;;;;;;;;17.40;99.90;;;;;;5111399;28;19969;-68
2022/10/21 13:24:47;;;;;;;;;;;17.70;99.90;;;;;;5111348;28;20293;-69
2022/10/21 13:27:32;;;;;;;;;;;17.70;99.90;;;;;;5111271;28;19942;-68
2022/10/21 13:29:58;;;;;;;;;;;17.80;99.90;;;;;;5110018;28;20369;-69
2022/10/21 13:32:26;;;;;;;;;;;17.60;99.90;;;;;;5111298;28;19911;-68
2022/10/21 13:37:40;;;;;;;;;;;17.50;99.90;;;;;;5144500;27;19913;-68
2022/10/21 13:40:07;;;;;;;;;;;17.50;99.90;;;;;;5111519;28;19996;-69
2022/10/21 13:42:35;;;;;;;;;;;17.50;99.90;;;;;;5111491;28;20292;-68
2022/10/21 13:45:06;;;;;;;;;;;17.60;99.90;;;;;;5111384;28;19908;-69
2022/10/21 13:47:33;;;;;;;;;;;17.60;99.90;;;;;;5111286;28;20341;-69
2022/10/21 13:50:06;;;;;;;;;;;17.70;99.90;;;;;;5111246;28;19953;-69
2022/10/21 13:52:31;;;;;;;;;;;17.90;99.90;;;;;;5111303;28;19908;-68
2022/10/21 13:54:58;;;;;;;;;;;18.10;99.90;;;;;;5111488;28;19957;-69
2022/10/21 13:57:27;;;;;;;;;;;18.10;99.90;;;;;;5111127;28;19970;-69
2022/10/21 14:00:12;;;;;;;;;;;18.10;99.90;;;;;;5111140;28;19908;-69
2022/10/21 14:02:44;;;;;;;;;;;18.10;99.90;;;;;;5111008;28;19961;-69
2022/10/21 14:05:26;;;;;;;;;;;18.00;99.90;;;;;;5111202;28;19908;-69
2022/10/21 14:07:52;;;;;;;;;;;18.00;99.90;;;;;;5110908;28;20023;-69
2022/10/21 14:10:18;;;;;;;;;;;18.00;99.90;;;;;;5109600;28;20379;-69
2022/10/21 14:12:44;;;;;;;;;;;18.00;99.90;;;;;;5110849;28;19915;-69
2022/10/21 14:15:12;;;;;;;;;;;18.00;99.90;;;;;;5110692;28;19908;-69
2022/10/21 14:17:41;;;;;;;;;;;18.00;99.90;;;;;;5110775;28;19964;-69
2022/10/21 14:20:11;;;;;;;;;;;18.00;99.90;;;;;;5109392;28;19908;-69
2022/10/21 14:22:37;;;;;;;;;;;17.90;99.90;;;;;;5110657;28;19908;-70
2022/10/21 14:25:03;;;;;;;;;;;17.90;99.90;;;;;;5110679;28;19912;-69
2022/10/21 14:27:30;;;;;;;;;;;17.80;99.90;;;;;;5109307;28;19908;-69
2022/10/21 14:29:57;;;;;;;;;;;17.80;99.90;;;;;;5109312;28;19915;-70
2022/10/21 14:32:23;;;;;;;;;;;17.80;99.90;;;;;;5109318;28;19914;-70
2022/10/21 14:35:07;;;;;;;;;;;17.70;99.90;;;;;;5109179;28;19915;-70
2022/10/21 14:37:49;;;;;;;;;;;17.70;99.90;;;;;;5110298;28;19927;-70
2022/10/21 14:40:19;;;;;;;;;;;17.60;99.90;;;;;;5110321;28;19912;-70
2022/10/21 14:42:46;;;;;;;;;;;17.60;99.90;;;;;;5110257;28;19908;-71